createdAt,value
2023-05-25T00:00:18.434Z,17.00
2023-05-25T00:03:05.320Z,19.00
2023-05-25T00:05:31.934Z,19.50
2023-05-25T00:07:58.460Z,17.50
2023-05-25T00:10:25.297Z,20.00
2023-05-25T00:12:51.979Z,17.00
2023-05-25T00:15:18.828Z,20.00
2023-05-25T00:17:48.291Z,16.00
2023-05-25T00:20:16.006Z,19.00
2023-05-25T00:22:44.315Z,19.00
2023-05-25T00:25:11.406Z,19.00
2023-05-25T00:27:38.101Z,20.00
2023-05-25T00:32:33.679Z,18.50
2023-05-25T00:35:00.593Z,20.00
2023-05-25T00:37:28.017Z,18.50
2023-05-25T00:39:55.805Z,21.50
2023-05-25T00:42:25.261Z,21.00
2023-05-25T00:44:51.904Z,20.00
2023-05-25T00:47:19.206Z,20.00
2023-05-25T00:49:47.486Z,19.50
2023-05-25T00:52:14.903Z,19.00
2023-05-25T00:54:45.388Z,18.50
2023-05-25T00:59:44.401Z,20.00
2023-05-25T01:02:13.355Z,20.00
2023-05-25T01:04:46.125Z,19.00
2023-05-25T01:07:17.155Z,21.00
2023-05-25T01:09:45.075Z,20.00
2023-05-25T01:12:15.150Z,20.00
2023-05-25T01:14:41.711Z,18.50
2023-05-25T01:19:41.966Z,17.00
2023-05-25T01:22:28.397Z,16.00
2023-05-25T01:25:01.686Z,15.00
2023-05-25T01:30:11.454Z,17.50
2023-05-25T01:32:38.076Z,15.00
2023-05-25T01:35:04.914Z,14.00
2023-05-25T01:37:32.504Z,16.00
2023-05-25T01:39:59.046Z,15.00
2023-05-25T01:42:25.648Z,18.00
2023-05-25T01:44:52.313Z,15.00
2023-05-25T01:47:24.430Z,19.00
2023-05-25T01:50:25.252Z,14.00
2023-05-25T01:52:59.045Z,12.50
2023-05-25T01:57:57.395Z,17.00
2023-05-25T02:00:30.647Z,14.00
2023-05-25T02:02:57.258Z,12.00
2023-05-25T02:05:24.078Z,17.00
2023-05-25T02:07:50.696Z,12.00
2023-05-25T02:10:17.274Z,14.50
2023-05-25T02:12:44.070Z,15.50
2023-05-25T02:15:12.879Z,15.00
2023-05-25T02:17:39.450Z,16.50
2023-05-25T02:22:34.882Z,16.00
2023-05-25T02:25:01.459Z,16.00
2023-05-25T02:27:30.109Z,16.00
2023-05-25T02:30:00.830Z,17.50
2023-05-25T02:32:30.688Z,14.50
2023-05-25T02:34:59.836Z,14.00
2023-05-25T02:37:26.403Z,18.00
2023-05-25T02:42:20.134Z,16.00
2023-05-25T02:44:48.056Z,19.00
2023-05-25T02:47:15.471Z,17.00
2023-05-25T02:49:42.616Z,23.00
2023-05-25T02:52:09.383Z,24.00
2023-05-25T02:54:36.293Z,25.50
2023-05-25T02:57:04.070Z,20.00
2023-05-25T02:59:31.119Z,17.50
2023-05-25T03:01:58.364Z,17.00
2023-05-25T03:04:25.533Z,20.50
2023-05-25T03:06:52.988Z,19.00
2023-05-25T03:09:20.401Z,17.00
2023-05-25T03:11:49.477Z,18.50
2023-05-25T03:14:18.675Z,15.67
2023-05-25T03:16:54.101Z,16.00
2023-05-25T03:19:21.489Z,13.00
2023-05-25T03:21:48.124Z,18.00
2023-05-25T03:24:14.784Z,19.00
2023-05-25T03:26:42.722Z,16.00
2023-05-25T03:29:15.801Z,18.00
2023-05-25T03:31:42.575Z,18.00
2023-05-25T03:34:09.522Z,15.00
2023-05-25T03:36:38.346Z,14.00
2023-05-25T03:39:06.682Z,17.00
2023-05-25T03:41:34.082Z,16.00
2023-05-25T03:46:27.221Z,18.00
2023-05-25T03:48:56.851Z,19.00
2023-05-25T03:51:23.846Z,15.50
2023-05-25T03:53:52.233Z,16.00
2023-05-25T03:56:18.864Z,17.00
2023-05-25T03:58:45.841Z,17.50
2023-05-25T04:01:14.321Z,17.00
2023-05-25T04:03:42.208Z,17.00
2023-05-25T04:06:10.888Z,16.00
2023-05-25T04:08:41.609Z,15.00
2023-05-25T04:11:08.197Z,17.00
2023-05-25T04:13:36.187Z,15.50
2023-05-25T04:16:04.450Z,17.00
2023-05-25T04:18:34.722Z,17.00
2023-05-25T04:21:01.693Z,16.00
2023-05-25T04:23:28.338Z,16.00
2023-05-25T04:25:54.966Z,15.00
2023-05-25T04:28:22.419Z,17.00
2023-05-25T04:30:56.422Z,15.00
2023-05-25T04:36:03.342Z,15.00
2023-05-25T04:38:30.076Z,15.00
2023-05-25T04:40:58.848Z,13.00
2023-05-25T04:43:27.254Z,16.00
2023-05-25T04:45:54.371Z,17.00
2023-05-25T04:48:23.882Z,14.00
2023-05-25T04:50:52.344Z,16.00
2023-05-25T04:53:19.834Z,14.50
2023-05-25T04:55:46.993Z,19.50
2023-05-25T04:58:14.902Z,16.00
2023-05-25T05:00:42.258Z,15.00
2023-05-25T05:03:10.638Z,15.00
2023-05-25T05:05:37.364Z,17.00
2023-05-25T05:08:05.748Z,15.00
2023-05-25T05:10:32.518Z,14.00
2023-05-25T05:12:59.381Z,15.00
2023-05-25T05:15:26.384Z,16.50
2023-05-25T05:17:53.533Z,15.00
2023-05-25T05:20:20.391Z,17.50
2023-05-25T05:22:47.107Z,16.00
2023-05-25T05:25:13.749Z,13.50
2023-05-25T05:27:40.993Z,17.00
2023-05-25T05:30:15.316Z,15.00
2023-05-25T05:32:41.943Z,15.00
2023-05-25T05:35:10.068Z,17.00
2023-05-25T05:37:47.274Z,13.00
2023-05-25T05:40:14.955Z,13.50
2023-05-25T05:42:42.195Z,13.00
2023-05-25T05:45:10.094Z,13.00
2023-05-25T05:47:37.356Z,13.00
2023-05-25T05:50:05.078Z,11.00
2023-05-25T05:52:32.891Z,14.00
2023-05-25T05:54:59.485Z,14.00
2023-05-25T05:57:27.905Z,20.00
2023-05-25T05:59:54.663Z,16.00
2023-05-25T06:02:21.294Z,23.50
2023-05-25T06:04:48.748Z,20.00
2023-05-25T06:07:15.363Z,14.00
2023-05-25T06:09:41.886Z,28.00
2023-05-25T06:12:08.807Z,53.50
2023-05-25T06:14:35.549Z,63.50
2023-05-25T06:17:03.010Z,38.00
2023-05-25T06:19:29.752Z,24.00
2023-05-25T06:21:57.083Z,16.00
2023-05-25T06:24:23.681Z,22.00
2023-05-25T06:29:17.508Z,21.00
2023-05-25T06:31:44.255Z,12.00
2023-05-25T06:34:10.858Z,14.00
2023-05-25T06:39:03.926Z,16.00
2023-05-25T06:41:31.586Z,22.00
2023-05-25T06:43:58.098Z,17.00
2023-05-25T06:46:41.635Z,15.00
2023-05-25T06:49:08.689Z,14.00
2023-05-25T06:51:36.674Z,17.00
2023-05-25T06:54:03.594Z,16.50
2023-05-25T06:56:30.841Z,16.00
2023-05-25T06:58:57.454Z,13.00
2023-05-25T07:01:23.982Z,15.00
2023-05-25T07:03:50.697Z,16.00
2023-05-25T07:06:17.304Z,11.00
2023-05-25T07:08:44.056Z,13.00
2023-05-25T07:11:11.901Z,12.00
2023-05-25T07:13:38.435Z,15.00
2023-05-25T07:16:05.307Z,13.00
2023-05-25T07:18:32.000Z,12.00
2023-05-25T07:20:58.773Z,11.00
2023-05-25T07:25:51.927Z,15.00
2023-05-25T07:28:18.484Z,11.00
2023-05-25T07:30:45.424Z,11.00
2023-05-25T07:33:11.992Z,16.00
2023-05-25T07:35:38.614Z,11.00
2023-05-25T07:38:05.221Z,12.00
2023-05-25T07:40:31.979Z,16.00
2023-05-25T07:42:58.818Z,14.00
2023-05-25T07:47:51.925Z,11.00
2023-05-25T07:50:18.526Z,9.00
2023-05-25T07:52:45.654Z,8.00
2023-05-25T07:55:12.275Z,10.00
2023-05-25T07:57:38.834Z,11.00
2023-05-25T08:00:07.543Z,11.00
2023-05-25T08:02:40.456Z,9.00
2023-05-25T08:05:07.803Z,7.00
2023-05-25T08:07:34.529Z,10.00
2023-05-25T08:10:01.264Z,12.50
2023-05-25T08:12:45.918Z,12.00
2023-05-25T08:15:15.825Z,13.00
2023-05-25T08:17:42.492Z,9.00
2023-05-25T08:20:09.854Z,8.00
2023-05-25T08:22:36.369Z,8.00
2023-05-25T08:25:03.430Z,7.00
2023-05-25T08:27:30.329Z,9.00
2023-05-25T08:29:57.683Z,11.00
2023-05-25T08:32:24.477Z,7.00
2023-05-25T08:34:51.121Z,8.00
2023-05-25T08:37:19.368Z,6.00
2023-05-25T08:39:45.921Z,9.00
2023-05-25T08:42:12.572Z,6.00
2023-05-25T08:44:39.182Z,7.00
2023-05-25T08:47:06.964Z,7.00
2023-05-25T08:49:37.938Z,8.50
2023-05-25T08:52:05.346Z,7.50
2023-05-25T08:54:36.117Z,8.00
2023-05-25T08:57:16.737Z,10.00
2023-05-25T09:00:14.929Z,8.00
2023-05-25T09:03:15.316Z,8.00
2023-05-25T09:05:42.142Z,9.00
2023-05-25T09:08:09.799Z,11.00
2023-05-25T09:10:37.613Z,9.00
2023-05-25T09:13:19.812Z,9.00
2023-05-25T09:15:48.722Z,7.00
2023-05-25T09:18:15.330Z,10.00
2023-05-25T09:20:45.054Z,7.00
2023-05-25T09:23:13.009Z,11.00
2023-05-25T09:25:39.552Z,8.00
2023-05-25T09:28:24.630Z,6.00
2023-05-25T09:30:53.591Z,6.00
2023-05-25T09:33:20.576Z,5.00
2023-05-25T09:35:47.399Z,6.00
2023-05-25T09:38:15.040Z,5.75
2023-05-25T09:40:41.951Z,6.50
2023-05-25T09:43:08.807Z,4.00
2023-05-25T09:45:37.946Z,8.00
2023-05-25T09:48:05.951Z,5.00
2023-05-25T09:50:32.894Z,7.00
2023-05-25T09:53:00.341Z,6.00
2023-05-25T09:55:36.592Z,5.00
2023-05-25T09:58:12.704Z,5.00
2023-05-25T10:00:39.165Z,6.00
2023-05-25T10:03:07.395Z,6.50
2023-05-25T10:05:33.970Z,7.00
2023-05-25T10:08:00.845Z,6.00
2023-05-25T10:10:27.424Z,5.00
2023-05-25T10:12:54.081Z,7.00
2023-05-25T10:15:20.696Z,7.00
2023-05-25T10:17:54.920Z,6.00
2023-05-25T10:20:23.006Z,6.00
2023-05-25T10:23:00.510Z,7.00
2023-05-25T10:25:37.952Z,8.00
2023-05-25T10:28:21.461Z,7.00
2023-05-25T10:30:49.177Z,6.00
2023-05-25T10:33:16.061Z,6.50
2023-05-25T10:36:01.412Z,7.00
2023-05-25T10:38:31.024Z,7.00
2023-05-25T10:43:27.262Z,7.00
2023-05-25T10:45:54.954Z,7.50
2023-05-25T10:48:22.551Z,8.00
2023-05-25T10:50:49.953Z,8.00
2023-05-25T10:53:16.615Z,9.00
2023-05-25T10:55:52.860Z,8.00
2023-05-25T11:01:16.002Z,8.00
2023-05-25T11:03:55.986Z,7.00
2023-05-25T11:06:41.001Z,9.00
2023-05-25T11:09:07.773Z,8.00
2023-05-25T11:11:44.723Z,11.00
2023-05-25T11:14:30.465Z,9.50
2023-05-25T11:17:13.810Z,8.50
2023-05-25T11:19:51.939Z,10.00
2023-05-25T11:22:23.268Z,9.00
2023-05-25T11:24:51.768Z,8.00
2023-05-25T11:27:28.354Z,14.00
2023-05-25T11:29:58.147Z,9.00
2023-05-25T11:32:27.711Z,7.00
2023-05-25T11:34:55.532Z,8.00
2023-05-25T11:37:24.589Z,8.50
2023-05-25T11:39:51.760Z,9.00
2023-05-25T11:42:24.736Z,8.00
2023-05-25T11:44:51.288Z,9.00
2023-05-25T11:47:22.302Z,7.00
2023-05-25T11:49:49.449Z,9.00
2023-05-25T11:52:17.414Z,8.00
2023-05-25T11:54:44.467Z,9.00
2023-05-25T11:57:23.824Z,8.00
2023-05-25T11:59:59.710Z,9.00
2023-05-25T12:02:26.245Z,10.00
2023-05-25T12:04:57.777Z,9.00
2023-05-25T12:07:25.619Z,8.00
2023-05-25T12:12:19.108Z,7.00
2023-05-25T12:14:48.991Z,9.00
2023-05-25T12:17:20.367Z,12.00
2023-05-25T12:19:47.143Z,9.00
2023-05-25T12:22:14.466Z,9.00
2023-05-25T12:24:41.043Z,9.00
2023-05-25T12:27:17.753Z,10.50
2023-05-25T12:29:47.814Z,8.50
2023-05-25T12:32:14.778Z,9.00
2023-05-25T12:37:20.866Z,10.50
2023-05-25T12:39:47.777Z,7.00
2023-05-25T12:42:15.291Z,10.00
2023-05-25T12:44:42.260Z,11.00
2023-05-25T12:49:43.700Z,6.00
2023-05-25T12:52:10.560Z,9.50
2023-05-25T12:54:44.861Z,9.00
2023-05-25T12:57:13.477Z,9.00
2023-05-25T12:59:44.418Z,9.00
2023-05-25T13:02:12.103Z,6.00
2023-05-25T13:04:39.544Z,10.00
2023-05-25T13:07:09.654Z,11.00
2023-05-25T13:09:36.613Z,9.00
2023-05-25T13:12:03.723Z,8.00
2023-05-25T13:14:30.289Z,8.00
2023-05-25T13:16:56.972Z,10.00
2023-05-25T13:19:24.371Z,8.00
2023-05-25T13:21:51.661Z,6.50
2023-05-25T13:24:21.033Z,7.50
2023-05-25T13:26:50.704Z,8.00
2023-05-25T13:29:17.821Z,9.00
2023-05-25T13:31:44.481Z,7.00
2023-05-25T13:34:11.246Z,7.00
2023-05-25T13:36:37.852Z,10.00
2023-05-25T13:39:04.769Z,7.50
2023-05-25T13:41:31.687Z,7.33
2023-05-25T13:43:58.395Z,7.00
2023-05-25T13:46:34.304Z,8.00
2023-05-25T13:49:03.624Z,7.00
2023-05-25T13:51:30.688Z,8.00
2023-05-25T13:53:57.279Z,9.00
2023-05-25T13:56:23.881Z,6.50
2023-05-25T13:58:51.342Z,7.00
2023-05-25T14:01:17.956Z,9.00
2023-05-25T14:03:45.102Z,7.50
2023-05-25T14:06:12.009Z,9.00
2023-05-25T14:08:38.652Z,7.00
2023-05-25T14:11:05.263Z,8.00
2023-05-25T14:13:32.869Z,6.00
2023-05-25T14:15:59.584Z,7.00
2023-05-25T14:18:26.124Z,8.00
2023-05-25T14:20:52.867Z,7.00
2023-05-25T14:23:19.642Z,12.00
2023-05-25T14:25:46.701Z,13.00
2023-05-25T14:28:13.915Z,8.00
2023-05-25T14:30:40.686Z,8.00
2023-05-25T14:33:07.488Z,7.00
2023-05-25T14:38:00.554Z,6.00
2023-05-25T14:40:27.029Z,8.00
2023-05-25T14:42:54.817Z,10.00
2023-05-25T14:45:21.472Z,10.50
2023-05-25T14:47:48.035Z,12.00
2023-05-25T14:52:41.408Z,12.00
2023-05-25T14:57:36.105Z,10.00
2023-05-25T15:02:29.788Z,12.00
2023-05-25T15:04:56.614Z,11.00
2023-05-25T15:07:23.276Z,12.00
2023-05-25T15:09:49.762Z,10.00
2023-05-25T15:12:16.319Z,10.00
2023-05-25T15:14:43.024Z,10.00
2023-05-25T15:19:36.592Z,11.00
2023-05-25T15:22:03.325Z,12.00
2023-05-25T15:24:29.959Z,13.00
2023-05-25T15:29:23.591Z,11.00
2023-05-25T15:31:51.912Z,10.00
2023-05-25T15:34:19.445Z,12.00
2023-05-25T15:36:46.148Z,14.00
2023-05-25T15:41:40.954Z,19.00
2023-05-25T15:44:11.710Z,9.00
2023-05-25T15:46:39.499Z,9.00
2023-05-25T15:49:10.539Z,8.50
2023-05-25T15:51:39.118Z,8.00
2023-05-25T15:57:26.972Z,9.50
2023-05-25T15:59:54.206Z,10.00
2023-05-25T16:02:20.788Z,12.00
2023-05-25T16:04:47.532Z,10.50
2023-05-25T16:07:14.176Z,10.00
2023-05-25T16:09:40.831Z,8.00
2023-05-25T16:12:07.480Z,9.00
2023-05-25T16:14:33.996Z,9.00
2023-05-25T16:17:00.565Z,10.00
2023-05-25T16:19:27.208Z,12.50
2023-05-25T16:21:53.893Z,10.50
2023-05-25T16:24:20.564Z,8.00
2023-05-25T16:26:47.204Z,9.00
2023-05-25T16:29:13.750Z,8.00
2023-05-25T16:31:40.610Z,10.00
2023-05-25T16:34:07.205Z,9.00
2023-05-25T16:36:33.818Z,10.00
2023-05-25T16:39:00.478Z,11.00
2023-05-25T16:41:27.070Z,7.00
2023-05-25T16:43:53.707Z,10.00
2023-05-25T16:46:20.807Z,8.00
2023-05-25T16:48:47.457Z,10.00
2023-05-25T16:51:15.262Z,10.50
2023-05-25T16:53:42.933Z,9.50
2023-05-25T16:56:09.660Z,12.00
2023-05-25T16:58:36.362Z,12.00
2023-05-25T17:01:02.890Z,9.00
2023-05-25T17:03:29.592Z,8.00
2023-05-25T17:05:56.380Z,10.00
2023-05-25T17:08:23.075Z,11.00
2023-05-25T17:10:50.099Z,12.00
2023-05-25T17:13:16.728Z,13.00
2023-05-25T17:15:43.555Z,10.00
2023-05-25T17:18:10.445Z,13.00
2023-05-25T17:20:37.146Z,13.00
2023-05-25T17:23:03.881Z,12.00
2023-05-25T17:25:30.450Z,12.00
2023-05-25T17:27:56.958Z,12.00
2023-05-25T17:30:23.532Z,14.00
2023-05-25T17:32:50.483Z,10.50
2023-05-25T17:35:17.100Z,9.00
2023-05-25T17:37:43.791Z,9.00
2023-05-25T17:40:11.086Z,13.00
2023-05-25T17:42:37.755Z,10.00
2023-05-25T17:45:09.942Z,10.00
2023-05-25T17:47:37.005Z,12.00
2023-05-25T17:50:04.462Z,12.00
2023-05-25T17:52:31.151Z,12.50
2023-05-25T17:54:57.705Z,13.00
2023-05-25T17:57:25.166Z,10.00
2023-05-25T17:59:51.814Z,11.50
2023-05-25T18:02:18.511Z,10.00
2023-05-25T18:04:45.284Z,12.50
2023-05-25T18:07:12.640Z,12.50
2023-05-25T18:09:39.233Z,14.00
2023-05-25T18:12:06.957Z,16.00
2023-05-25T18:14:36.867Z,12.00
2023-05-25T18:17:03.711Z,15.00
2023-05-25T18:19:30.491Z,14.00
2023-05-25T18:21:57.011Z,14.00
2023-05-25T18:24:23.760Z,13.00
2023-05-25T18:26:50.799Z,13.00
2023-05-25T18:31:46.570Z,12.50
2023-05-25T18:34:13.466Z,11.00
2023-05-25T18:36:40.016Z,12.00
2023-05-25T18:39:06.567Z,9.00
2023-05-25T18:41:33.103Z,11.00
2023-05-25T18:43:59.634Z,10.00
2023-05-25T18:46:27.694Z,13.00
2023-05-25T18:48:55.107Z,13.00
2023-05-25T18:51:24.919Z,13.00
2023-05-25T18:53:51.590Z,10.50
2023-05-25T18:56:18.764Z,12.00
2023-05-25T18:58:45.442Z,14.00
2023-05-25T19:01:12.012Z,13.00
2023-05-25T19:03:38.756Z,10.50
2023-05-25T19:06:06.025Z,15.00
2023-05-25T19:08:32.767Z,15.00
2023-05-25T19:10:59.315Z,16.00
2023-05-25T19:13:25.972Z,16.00
2023-05-25T19:15:52.700Z,13.50
2023-05-25T19:18:19.375Z,15.00
2023-05-25T19:20:46.213Z,17.00
2023-05-25T19:23:12.889Z,17.00
2023-05-25T19:25:39.646Z,16.00
2023-05-25T19:28:06.321Z,17.00
2023-05-25T19:30:33.019Z,17.00
2023-05-25T19:32:59.709Z,17.00
2023-05-25T19:35:26.356Z,14.00
2023-05-25T19:37:54.310Z,20.00
2023-05-25T19:40:20.957Z,13.50
2023-05-25T19:42:47.413Z,14.00
2023-05-25T19:45:14.212Z,15.00
2023-05-25T19:47:40.827Z,17.67
2023-05-25T19:50:08.071Z,15.50
2023-05-25T19:52:34.708Z,14.50
2023-05-25T19:55:01.197Z,11.00
2023-05-25T19:57:27.914Z,15.00
2023-05-25T19:59:54.570Z,17.00
2023-05-25T20:02:21.176Z,17.00
2023-05-25T20:04:47.813Z,14.50
2023-05-25T20:07:14.377Z,15.00
2023-05-25T20:09:42.235Z,14.00
2023-05-25T20:12:08.848Z,13.00
2023-05-25T20:14:35.584Z,14.00
2023-05-25T20:17:02.500Z,15.00
2023-05-25T20:19:29.260Z,12.00
2023-05-25T20:21:57.424Z,16.00
2023-05-25T20:24:24.101Z,15.67
2023-05-25T20:26:55.889Z,13.50
2023-05-25T20:29:25.856Z,16.00
2023-05-25T20:31:52.629Z,15.00
2023-05-25T20:34:19.425Z,15.00
2023-05-25T20:36:46.285Z,14.50
2023-05-25T20:39:12.973Z,16.00
2023-05-25T20:41:39.515Z,13.00
2023-05-25T20:44:06.265Z,12.33
2023-05-25T20:46:33.251Z,13.00
2023-05-25T20:49:00.062Z,13.00
2023-05-25T20:51:26.577Z,13.00
2023-05-25T20:53:53.305Z,14.00
2023-05-25T20:56:19.812Z,13.00
2023-05-25T20:58:46.408Z,11.75
2023-05-25T21:01:12.935Z,13.50
2023-05-25T21:03:39.753Z,11.50
2023-05-25T21:06:06.492Z,14.00
2023-05-25T21:08:33.213Z,11.00
2023-05-25T21:10:59.738Z,10.50
2023-05-25T21:13:26.275Z,8.00
2023-05-25T21:15:52.812Z,9.00
2023-05-25T21:18:19.848Z,8.50
2023-05-25T21:20:46.500Z,8.00
2023-05-25T21:23:13.102Z,9.00
2023-05-25T21:25:39.945Z,7.50
2023-05-25T21:28:08.627Z,7.50
2023-05-25T21:30:35.254Z,8.00
2023-05-25T21:33:02.124Z,8.67
2023-05-25T21:35:29.315Z,8.00
2023-05-25T21:37:55.860Z,9.00
2023-05-25T21:40:22.407Z,8.00
2023-05-25T21:42:51.115Z,7.00
2023-05-25T21:45:18.591Z,7.00
2023-05-25T21:47:45.567Z,7.00
2023-05-25T21:50:12.267Z,8.00
2023-05-25T21:52:39.210Z,8.50
2023-05-25T21:55:06.764Z,9.00
2023-05-25T21:57:33.233Z,8.00
2023-05-25T21:59:59.913Z,7.00
2023-05-25T22:02:26.418Z,6.67
2023-05-25T22:04:53.180Z,7.00
2023-05-25T22:07:19.821Z,7.00
2023-05-25T22:09:46.343Z,8.50
2023-05-25T22:12:13.173Z,9.00
2023-05-25T22:14:39.737Z,8.00
2023-05-25T22:17:06.745Z,9.00
2023-05-25T22:19:33.266Z,12.00
2023-05-25T22:21:59.962Z,9.00
2023-05-25T22:24:27.036Z,10.00
2023-05-25T22:26:53.946Z,9.00
2023-05-25T22:29:21.733Z,9.00
2023-05-25T22:31:50.109Z,9.00
2023-05-25T22:34:16.713Z,9.00
2023-05-25T22:36:43.260Z,6.00
2023-05-25T22:39:10.168Z,5.00
2023-05-25T22:41:36.844Z,7.00
2023-05-25T22:44:03.495Z,7.00
2023-05-25T22:46:30.191Z,6.50
2023-05-25T22:48:56.858Z,6.00
2023-05-25T22:51:23.409Z,6.00
2023-05-25T22:53:50.024Z,6.00
2023-05-25T22:56:16.539Z,5.00
2023-05-25T22:58:43.186Z,5.00
2023-05-25T23:01:09.732Z,6.00
2023-05-25T23:03:36.377Z,7.00
2023-05-25T23:06:03.140Z,7.00
2023-05-25T23:08:30.078Z,5.00
2023-05-25T23:10:56.719Z,6.00
2023-05-25T23:13:23.653Z,7.00
2023-05-25T23:15:50.428Z,6.00
2023-05-25T23:18:17.008Z,8.00
2023-05-25T23:20:44.308Z,7.00
2023-05-25T23:23:11.183Z,6.50
2023-05-25T23:25:37.937Z,5.00
2023-05-25T23:28:04.484Z,5.00
2023-05-25T23:30:31.133Z,6.00
2023-05-25T23:32:57.880Z,5.50
2023-05-25T23:35:24.417Z,6.00
2023-05-25T23:37:51.365Z,8.00
2023-05-25T23:40:18.040Z,7.00
2023-05-25T23:42:45.544Z,6.00
2023-05-25T23:45:13.104Z,6.00
2023-05-25T23:47:40.307Z,6.00
2023-05-25T23:52:34.096Z,7.00
2023-05-25T23:55:00.797Z,8.00
2023-05-25T23:57:27.624Z,7.00
2023-05-25T23:59:54.254Z,6.00
